Jiuxian Shan, China
Current Conditions -  °F | °C
As of 9:00 PM on Thursday 23 Oct 2014 (Local Time) from ZSAM Reporting Station
Scattered Clouds Scattered Clouds  
Wind Chill: 72°   Ceiling: Unl
Heat Index: 72°   Visibility: 6mi
Dew Point: 61°   Wind: 11mph
Humidity: 69%   Direction: 80°E
Pressure: 30.06"   Gusts: NA
Location:  25.72°N, 118.1°E
Report Text: ZSAM 231300Z 08005MPS 9999 SCT050 22/16 Q1018 NOSIG
Loading
Personal Weather Stations






























Interactive Weather Map
Tropical Storm Tracking
New forecast layout! Learn more

10-Day Weather Forecast

Advertisements
Track Severe Weather on mobile